• Join FlightAware (Why Join?)
  • Login
  • US Flag 
09:56PM EDT


 

Airport Tracker/Info


-or-


 

Live Flight TrackerFlight Track Log ✈ SKW6492 ✈ 24-Jan-2014 ✈ KDEN - KCOD

Flight Track Log - Related Links

Times and Time Zones

All times are in EST time to prevent confusion due to time zone crossing. See the SKW6492 flight status page for this flight to view local times or setup timezone preferences in your user account.

Time Position Orientation Groundspeed Altitude Reporting Facility
EST Latitude Longitude Course Direction KTS MPH feet Rate Location/Type
10:12PM 39.9333 -104.7000 346° North 184 212 7,600  Level Denver TRACON
10:13PM 39.9833 -104.6833 14° North 222 255 10,000 2,640 Climbing Denver TRACON
10:14PM 40.1435 -104.7643 344° North  Level FlightAware Approximate
10:14PM 40.0444 -104.6619 15° North 252 290 12,400  Level Denver Center
10:15PM 40.2421 -104.7943 347° North  Level FlightAware Approximate
10:15PM 40.1164 -104.6739 353° North 260 299 15,100  Level Denver Center
10:16PM 40.3406 -104.8247 346° North  Level FlightAware Approximate
10:16PM 40.1956 -104.6944 349° North 268 308 17,500  Level Denver Center
10:17PM 40.4387 -104.8573 346° North  Level FlightAware Approximate
10:17PM 40.2703 -104.7144 348° North 274 315 19,300  Level Denver Center
10:18PM 40.3558 -104.7361 349° North 288 331 21,400 1,260 Climbing Denver Center
10:19PM 40.4417 -104.7581 349° North 316 364 22,000 780 Climbing Denver Center
10:20PM 40.5353 -104.7822 349° North 339 390 23,000 1,020 Climbing Denver Center
10:21PM 40.6322 -104.8061 349° North 353 406 24,100 1,140 Climbing Denver Center
10:22PM 40.7317 -104.8347 348° North 364 419 25,400 1,080 Climbing Denver Center
10:23PM 40.8303 -104.8678 346° North 366 421 26,400 840 Climbing Denver Center
10:24PM 40.9142 -104.9464 325° Northwest 373 429 27,200 780 Climbing Denver Center
10:25PM 40.9953 -105.0336 321° Northwest 374 430 28,000 1,020 Climbing Denver Center
10:26PM 41.0958 -105.1394 322° Northwest 384 442 29,400 1,200 Climbing Denver Center
10:27PM 41.1733 -105.2222 321° Northwest 378 435 30,500 960 Climbing Denver Center
10:28PM 41.2494 -105.3022 322° Northwest 369 425 31,400 720 Climbing Denver Center
10:29PM 41.3383 -105.3967 321° Northwest 366 421 32,000 240 Climbing Denver Center
10:30PM 41.4050 -105.4667 322° Northwest 375 432 32,000  Level Denver Center
10:31PM 41.5167 -105.5861 321° Northwest 399 459 32,000  Level Denver Center
10:32PM 41.6161 -105.6939 321° Northwest 409 471 32,000  Level Denver Center
10:33PM 41.7172 -105.8025 321° Northwest 414 476 32,000  Level Denver Center
10:34PM 41.8028 -105.8958 321° Northwest 415 478 32,000  Level Denver Center
10:35PM 41.9044 -106.0056 321° Northwest 419 482 32,000  Level Denver Center
10:36PM 41.9917 -106.1017 321° Northwest 421 484 32,000  Level Denver Center
10:37PM 42.0789 -106.1969 321° Northwest 420 483 32,000  Level Denver Center
10:38PM 42.1794 -106.3078 321° Northwest 419 482 32,000  Level Denver Center
10:39PM 42.2661 -106.4042 321° Northwest 421 484 32,000  Level Denver Center
10:40PM 42.3678 -106.5156 321° Northwest 421 484 32,000  Level Denver Center
10:41PM 42.4533 -106.6128 320° Northwest 420 483 32,000  Level Denver Center
10:42PM 42.5414 -106.7089 321° Northwest 423 487 32,000  Level Denver Center
10:43PM 42.6417 -106.8211 321° Northwest 421 484 32,000  Level Denver Center
10:44PM 42.7269 -106.9192 320° Northwest 420 483 32,000  Level Denver Center
10:45PM 42.8269 -107.0314 321° Northwest 418 481 32,000  Level Denver Center
10:46PM 42.8794 -107.0897 321° Northwest 422 486 32,000  Level Salt Lake Center
10:47PM 42.9692 -107.1953 319° Northwest 417 480 32,000  Level Salt Lake Center
10:48PM 43.0589 -107.2967 320° Northwest 419 482 32,000  Level Salt Lake Center
10:49PM 43.1467 -107.3986 320° Northwest 415 478 32,000  Level Salt Lake Center
10:50PM 43.2542 -107.5225 320° Northwest 420 483 32,000  Level Salt Lake Center
10:51PM 43.3436 -107.6272 320° Northwest 423 487 32,000  Level Salt Lake Center
10:52PM 43.4350 -107.7297 321° Northwest 425 489 32,000 -180 Level Salt Lake Center
10:53PM 43.5253 -107.8361 320° Northwest 426 490 31,700 -1,440 Descending Salt Lake Center
10:54PM 43.6122 -107.9386 320° Northwest 414 476 29,100 -2,520 Descending Salt Lake Center
10:55PM 43.6950 -108.0353 320° Northwest 394 453 26,600 -2,460 Descending Salt Lake Center
10:56PM 43.7803 -108.1353 320° Northwest 400 460 24,100 -2,460 Descending Salt Lake Center
10:57PM 43.8658 -108.2367 320° Northwest 404 465 21,600 -2,460 Descending Salt Lake Center
10:59PM 43.9478 -108.3369 319° Northwest 398 458 19,100 -2,640 Descending Salt Lake Center
11:00PM 44.0422 -108.4486 320° Northwest 385 443 16,300 -2,100 Descending Salt Lake Center
11:01PM 44.1156 -108.5372 319° Northwest 371 427 14,800 -1,500 Descending Salt Lake Center
11:02PM 44.1842 -108.6189 320° Northwest 352 405 13,300 -1,380 Descending Salt Lake Center
11:03PM 44.2519 -108.7014 319° Northwest 337 388 12,000 -900 Descending Salt Lake Center
11:04PM 44.3194 -108.7825 319° Northwest 330 380 11,500 -1,080 Descending Salt Lake Center
11:05PM 44.3753 -108.8358 326° Northwest 287 330 9,900 -1,320 Descending Salt Lake Center
11:06PM 44.4356 -108.8789 333° Northwest 258 297 8,800 -1,080 Descending Salt Lake Center
11:07PM 44.4917 -108.9206 332° Northwest 243 280 7,800 -1,080 Descending Salt Lake Center
11:08PM 44.5364 -108.9461 338° Northwest 212 244 6,700 -840 Descending Salt Lake Center
11:09PM 44.5750 -108.9892 322° Northwest 192 221 6,100 -600 Descending Salt Lake Center